Time;durP1;ratioP1;P1;durP2;ratioP2;P2;SDS_P1;SDS_P2;PMS_P1;PMS_P2;Temp;Humidity;BMP_temperature;BMP_pressure;BME280_temperature;BME280_humidity;BME280_pressure;Samples;Min_cycle;Max_cycle;Signal;HPM_P1;HPM_P2
2023/09/30 00:00:56;;;;;;;33.25;21.45;;;;;;;;;;10466107;28;20028;-82
2023/09/30 00:05:58;;;;;;;31.48;20.17;;;;;;;;;;10485415;28;20155;-82
2023/09/30 00:10:59;;;;;;;36.28;24.83;;;;;;;;;;10485586;28;20082;-83
2023/09/30 00:16:00;;;;;;;36.05;26.20;;;;;;;;;;10483643;28;20040;-83
2023/09/30 00:21:02;;;;;;;42.13;27.10;;;;;;;;;;10483037;28;20495;-83
2023/09/30 00:26:03;;;;;;;35.55;25.00;;;;;;;;;;10484391;28;20037;-85
2023/09/30 00:31:09;;;;;;;39.42;25.88;;;;;;;;;;10483564;28;20033;-84
2023/09/30 00:36:11;;;;;;;28.08;19.67;;;;;;;;;;10484856;28;20481;-83
2023/09/30 00:41:11;;;;;;;38.92;25.85;;;;;;;;;;10484466;28;20021;-83
2023/09/30 00:46:31;;;;;;;36.65;25.27;;;;;;;;;;10482033;28;20056;-83
2023/09/30 00:51:33;;;;;;;35.25;24.45;;;;;;;;;;10464583;28;20531;-84
2023/09/30 00:56:34;;;;;;;36.60;25.23;;;;;;;;;;10495556;23;20147;-84
2023/09/30 01:01:36;;;;;;;34.80;24.42;;;;;;;;;;10483273;28;20051;-83
2023/09/30 01:06:37;;;;;;;32.55;22.42;;;;;;;;;;10486142;28;20032;-83
2023/09/30 01:11:38;;;;;;;34.20;24.42;;;;;;;;;;10491450;28;20040;-83
2023/09/30 01:16:39;;;;;;;29.52;19.98;;;;;;;;;;10490165;28;20091;-83
2023/09/30 01:21:41;;;;;;;29.33;20.38;;;;;;;;;;10489865;28;20476;-83
2023/09/30 01:26:42;;;;;;;24.58;17.35;;;;;;;;;;10502075;23;20118;-82
2023/09/30 01:31:43;;;;;;;48.83;26.75;;;;;;;;;;10489940;28;20074;-83
2023/09/30 01:36:44;;;;;;;31.83;21.88;;;;;;;;;;10484515;28;20040;-83
2023/09/30 01:41:45;;;;;;;27.05;18.60;;;;;;;;;;10488557;28;20028;-83
2023/09/30 01:46:46;;;;;;;34.00;22.20;;;;;;;;;;10488357;28;20052;-83
2023/09/30 01:51:47;;;;;;;24.73;17.45;;;;;;;;;;10489624;28;20107;-84
2023/09/30 01:56:49;;;;;;;30.45;20.27;;;;;;;;;;10476471;28;20036;-83
2023/09/30 02:01:50;;;;;;;31.02;21.25;;;;;;;;;;10486045;28;20028;-83
2023/09/30 02:06:51;;;;;;;32.55;19.63;;;;;;;;;;10489378;28;20017;-83
2023/09/30 02:11:52;;;;;;;25.70;18.08;;;;;;;;;;10489077;28;20036;-83
2023/09/30 02:16:53;;;;;;;33.95;22.25;;;;;;;;;;10485755;28;20044;-83
2023/09/30 02:21:54;;;;;;;31.70;20.42;;;;;;;;;;10488196;28;20066;-83
2023/09/30 02:26:55;;;;;;;33.15;21.95;;;;;;;;;;10469841;28;20453;-83
2023/09/30 02:31:56;;;;;;;22.95;17.00;;;;;;;;;;10485224;28;20052;-84
2023/09/30 02:36:59;;;;;;;34.17;22.20;;;;;;;;;;10488273;28;20025;-84
2023/09/30 02:42:01;;;;;;;29.13;21.00;;;;;;;;;;10486996;28;20028;-84
2023/09/30 02:47:02;;;;;;;29.10;20.00;;;;;;;;;;10483319;28;20472;-83
2023/09/30 02:52:03;;;;;;;31.58;20.55;;;;;;;;;;10486047;28;20132;-85
2023/09/30 02:57:11;;;;;;;33.15;21.75;;;;;;;;;;10486576;28;20878;-84
2023/09/30 03:02:12;;;;;;;25.90;17.42;;;;;;;;;;10483501;28;20041;-84
2023/09/30 03:07:14;;;;;;;29.27;19.88;;;;;;;;;;10486241;28;20081;-84
2023/09/30 03:12:15;;;;;;;28.95;19.33;;;;;;;;;;10467844;28;20035;-83
2023/09/30 03:17:16;;;;;;;35.35;25.70;;;;;;;;;;10483448;28;20035;-83
2023/09/30 03:22:19;;;;;;;32.67;21.20;;;;;;;;;;10484399;28;20059;-83
2023/09/30 03:27:26;;;;;;;27.10;18.70;;;;;;;;;;10485127;28;20117;-82
2023/09/30 03:32:37;;;;;;;31.70;21.77;;;;;;;;;;10474718;28;20078;-82
2023/09/30 03:37:38;;;;;;;28.85;20.75;;;;;;;;;;10480643;28;20115;-82
2023/09/30 03:42:40;;;;;;;28.73;19.35;;;;;;;;;;10484451;28;20017;-83
2023/09/30 03:47:41;;;;;;;28.33;19.55;;;;;;;;;;10477719;28;20041;-82
2023/09/30 03:52:44;;;;;;;21.88;16.30;;;;;;;;;;10484026;28;20695;-84
2023/09/30 03:57:47;;;;;;;26.70;18.02;;;;;;;;;;10465175;28;20475;-83
2023/09/30 04:02:49;;;;;;;30.70;19.10;;;;;;;;;;10482070;28;20102;-83
2023/09/30 04:07:50;;;;;;;27.02;18.70;;;;;;;;;;10467353;28;20139;-83
2023/09/30 04:12:52;;;;;;;28.70;20.48;;;;;;;;;;10479686;28;20044;-82
2023/09/30 04:17:53;;;;;;;23.60;17.13;;;;;;;;;;10481335;28;20058;-83
2023/09/30 04:22:57;;;;;;;22.80;16.17;;;;;;;;;;10481227;28;20665;-83
2023/09/30 04:27:58;;;;;;;21.63;15.77;;;;;;;;;;10463598;28;20048;-83
2023/09/30 04:33:04;;;;;;;24.70;17.10;;;;;;;;;;10478705;28;20040;-82
2023/09/30 04:38:06;;;;;;;19.60;13.43;;;;;;;;;;10482684;28;20040;-83
2023/09/30 04:43:14;;;;;;;18.98;13.13;;;;;;;;;;10487420;28;20075;-82
2023/09/30 04:48:15;;;;;;;22.05;15.32;;;;;;;;;;10485618;28;20615;-82
2023/09/30 04:53:17;;;;;;;20.92;14.63;;;;;;;;;;10489415;28;20033;-83
2023/09/30 04:58:18;;;;;;;19.23;14.75;;;;;;;;;;10487608;28;20434;-82
2023/09/30 05:03:19;;;;;;;21.50;14.68;;;;;;;;;;10469606;28;20039;-82
2023/09/30 05:08:20;;;;;;;22.40;13.90;;;;;;;;;;10488392;28;20024;-83
2023/09/30 05:13:23;;;;;;;21.23;14.05;;;;;;;;;;10488276;28;20040;-82
2023/09/30 05:18:24;;;;;;;21.27;14.98;;;;;;;;;;10482756;28;20117;-84
2023/09/30 05:23:25;;;;;;;23.48;15.93;;;;;;;;;;10475381;28;20412;-81
2023/09/30 05:28:34;;;;;;;20.42;14.32;;;;;;;;;;10190376;23;8030021;-80
2023/09/30 05:33:45;;;;;;;21.25;12.35;;;;;;;;;;10446447;22;20148;-82
2023/09/30 05:38:47;;;;;;;22.50;15.93;;;;;;;;;;10434075;28;20036;-82
2023/09/30 05:43:48;;;;;;;22.98;16.05;;;;;;;;;;10441902;28;20032;-82
2023/09/30 05:48:50;;;;;;;19.05;15.32;;;;;;;;;;10430933;28;20431;-83
2023/09/30 05:53:52;;;;;;;21.40;16.40;;;;;;;;;;10442456;28;20040;-83
2023/09/30 05:58:53;;;;;;;24.42;18.55;;;;;;;;;;10432930;28;20113;-82
2023/09/30 06:03:54;;;;;;;22.08;16.58;;;;;;;;;;10403634;28;20175;-83
2023/09/30 06:08:58;;;;;;;28.73;18.80;;;;;;;;;;10398955;28;20036;-84
2023/09/30 06:14:00;;;;;;;26.50;18.75;;;;;;;;;;10416820;28;20091;-84
2023/09/30 06:19:02;;;;;;;25.80;17.92;;;;;;;;;;10445608;28;20431;-84
2023/09/30 06:24:04;;;;;;;23.02;17.90;;;;;;;;;;10433993;28;20108;-82
2023/09/30 06:29:06;;;;;;;27.38;19.80;;;;;;;;;;10396141;28;20715;-83
2023/09/30 06:34:11;;;;;;;27.38;19.90;;;;;;;;;;10429126;28;20072;-83
2023/09/30 06:39:12;;;;;;;26.58;18.98;;;;;;;;;;10432881;28;20044;-84
2023/09/30 06:44:13;;;;;;;31.30;21.33;;;;;;;;;;10431819;28;20039;-82
2023/09/30 06:49:15;;;;;;;31.00;22.58;;;;;;;;;;10416470;28;20040;-85
2023/09/30 06:54:16;;;;;;;29.77;22.17;;;;;;;;;;10415911;28;20143;-83
2023/09/30 06:59:17;;;;;;;36.72;25.30;;;;;;;;;;10408373;28;20488;-82
2023/09/30 07:04:18;;;;;;;37.42;24.38;;;;;;;;;;10426737;28;20030;-83
2023/09/30 07:09:20;;;;;;;32.10;23.48;;;;;;;;;;10428858;28;20162;-83
2023/09/30 07:14:21;;;;;;;31.80;22.88;;;;;;;;;;10411013;28;20467;-83
2023/09/30 07:19:22;;;;;;;35.42;23.73;;;;;;;;;;10438164;28;20033;-84
2023/09/30 07:24:23;;;;;;;31.13;22.08;;;;;;;;;;10417700;28;20029;-83
2023/09/30 07:29:24;;;;;;;33.85;21.58;;;;;;;;;;10399981;28;20734;-84
2023/09/30 07:34:25;;;;;;;32.15;22.80;;;;;;;;;;10415677;28;20086;-84
2023/09/30 07:39:26;;;;;;;33.53;22.25;;;;;;;;;;10382390;28;20120;-85
2023/09/30 07:44:27;;;;;;;34.45;22.40;;;;;;;;;;10388119;28;20401;-85
2023/09/30 07:49:28;;;;;;;30.13;22.40;;;;;;;;;;10396394;28;20035;-84
2023/09/30 07:54:29;;;;;;;31.90;22.33;;;;;;;;;;10393484;28;20049;-83
2023/09/30 07:59:30;;;;;;;32.28;22.55;;;;;;;;;;10388790;28;20489;-85
2023/09/30 08:04:33;;;;;;;39.13;24.63;;;;;;;;;;10376795;28;20080;-84
2023/09/30 08:09:34;;;;;;;27.88;20.70;;;;;;;;;;10381200;28;20545;-84
2023/09/30 08:14:35;;;;;;;31.40;22.00;;;;;;;;;;10398000;28;20549;-84
2023/09/30 08:19:36;;;;;;;30.17;21.55;;;;;;;;;;10408555;28;20420;-86
2023/09/30 08:24:38;;;;;;;27.70;20.38;;;;;;;;;;10403486;28;20039;-87
2023/09/30 08:29:38;;;;;;;27.83;20.30;;;;;;;;;;10394730;28;20025;-87
2023/09/30 08:34:40;;;;;;;24.95;18.80;;;;;;;;;;10402612;28;20069;-85
2023/09/30 08:39:42;;;;;;;24.40;18.00;;;;;;;;;;10406656;28;20029;-85
2023/09/30 08:44:44;;;;;;;25.42;18.73;;;;;;;;;;10394414;28;20167;-86
2023/09/30 08:49:45;;;;;;;28.52;20.67;;;;;;;;;;10401122;28;20108;-85
2023/09/30 08:54:46;;;;;;;32.08;20.95;;;;;;;;;;10419058;28;20046;-85
2023/09/30 08:59:49;;;;;;;23.92;16.58;;;;;;;;;;10409892;28;20029;-86
2023/09/30 09:04:50;;;;;;;27.90;19.30;;;;;;;;;;10381467;28;20033;-85
2023/09/30 09:10:08;;;;;;;28.13;19.20;;;;;;;;;;10412803;28;20037;-86
2023/09/30 09:15:21;;;;;;;34.22;21.88;;;;;;;;;;10434464;28;20802;-84
2023/09/30 09:20:29;;;;;;;35.63;22.48;;;;;;;;;;10412698;28;20102;-86
2023/09/30 09:25:38;;;;;;;30.83;21.80;;;;;;;;;;10411555;28;20025;-85
2023/09/30 09:30:41;;;;;;;28.27;21.08;;;;;;;;;;10366419;28;20529;-83
2023/09/30 09:35:55;;;;;;;21.17;16.25;;;;;;;;;;10397970;28;20089;-83
2023/09/30 09:40:59;;;;;;;34.28;23.08;;;;;;;;;;10410302;28;20014;-84
2023/09/30 09:46:03;;;;;;;26.92;20.05;;;;;;;;;;10408540;28;20041;-82
2023/09/30 09:51:07;;;;;;;32.00;22.60;;;;;;;;;;10407539;28;20045;-83
2023/09/30 09:56:12;;;;;;;31.77;21.83;;;;;;;;;;10410249;28;20503;-85
2023/09/30 10:01:13;;;;;;;36.58;23.80;;;;;;;;;;10402888;28;20087;-82
2023/09/30 10:06:15;;;;;;;34.97;24.23;;;;;;;;;;10403397;28;20088;-83
2023/09/30 10:11:20;;;;;;;32.70;22.60;;;;;;;;;;10392087;28;20106;-86
2023/09/30 10:16:36;;;;;;;30.98;20.83;;;;;;;;;;10422608;28;20135;-86
2023/09/30 10:21:38;;;;;;;35.00;22.13;;;;;;;;;;10406526;28;20129;-89
2023/09/30 10:26:39;;;;;;;27.02;18.15;;;;;;;;;;10418195;28;20029;-84
2023/09/30 10:31:52;;;;;;;28.27;20.00;;;;;;;;;;10407009;28;20726;-86
2023/09/30 10:36:53;;;;;;;28.92;19.85;;;;;;;;;;10424576;28;20061;-87
2023/09/30 10:41:54;;;;;;;30.77;21.40;;;;;;;;;;10422715;28;20032;-87
2023/09/30 10:47:02;;;;;;;29.88;20.50;;;;;;;;;;10412780;28;20465;-87
2023/09/30 10:52:03;;;;;;;27.05;16.58;;;;;;;;;;10406436;28;20450;-85
2023/09/30 10:57:04;;;;;;;36.08;22.90;;;;;;;;;;10394673;28;20201;-86
2023/09/30 11:02:19;;;;;;;30.80;22.35;;;;;;;;;;10375659;28;20436;-84
2023/09/30 11:07:24;;;;;;;27.95;21.27;;;;;;;;;;10398202;28;20083;-86
2023/09/30 11:12:25;;;;;;;33.85;22.92;;;;;;;;;;10368765;28;20022;-86
2023/09/30 11:17:33;;;;;;;36.03;24.55;;;;;;;;;;10418287;28;20165;-84
2023/09/30 11:22:35;;;;;;;28.55;18.98;;;;;;;;;;10381929;28;20088;-86
2023/09/30 11:27:36;;;;;;;23.30;15.77;;;;;;;;;;10398611;28;20026;-88
2023/09/30 11:32:38;;;;;;;23.60;14.68;;;;;;;;;;10385286;28;20030;-86
2023/09/30 11:37:41;;;;;;;20.55;13.07;;;;;;;;;;10420750;28;20574;-86
2023/09/30 11:42:42;;;;;;;13.10;9.30;;;;;;;;;;10390364;28;20100;-85
2023/09/30 11:47:44;;;;;;;8.40;5.50;;;;;;;;;;10401628;28;20474;-85
2023/09/30 11:52:46;;;;;;;8.00;5.18;;;;;;;;;;10386589;28;20029;-89
2023/09/30 11:57:48;;;;;;;9.30;6.15;;;;;;;;;;10378258;28;20034;-88
2023/09/30 12:02:49;;;;;;;18.25;9.35;;;;;;;;;;10399452;28;20128;-86
2023/09/30 12:07:50;;;;;;;22.48;12.30;;;;;;;;;;10385696;28;20026;-87
2023/09/30 12:12:51;;;;;;;34.92;17.38;;;;;;;;;;10361470;28;20026;-87
2023/09/30 12:17:53;;;;;;;32.10;16.83;;;;;;;;;;10401074;28;20140;-87
2023/09/30 12:22:54;;;;;;;31.00;15.80;;;;;;;;;;10379393;28;20092;-84
2023/09/30 12:27:55;;;;;;;23.63;12.30;;;;;;;;;;10388742;28;20095;-87
2023/09/30 12:32:56;;;;;;;21.38;11.50;;;;;;;;;;10389528;28;20038;-87
2023/09/30 12:37:57;;;;;;;20.17;11.43;;;;;;;;;;10402135;28;20057;-86
2023/09/30 12:42:58;;;;;;;15.88;9.77;;;;;;;;;;10395604;28;20186;-84
2023/09/30 12:47:59;;;;;;;18.65;12.00;;;;;;;;;;10401244;28;20163;-80
2023/09/30 12:53:00;;;;;;;25.70;13.68;;;;;;;;;;10428494;28;20791;-85
2023/09/30 12:58:01;;;;;;;20.15;12.35;;;;;;;;;;10399874;28;20033;-86
2023/09/30 13:03:03;;;;;;;21.00;10.07;;;;;;;;;;10400154;28;20037;-85
2023/09/30 13:08:07;;;;;;;20.50;10.82;;;;;;;;;;10409527;28;20435;-85
2023/09/30 13:13:08;;;;;;;21.08;9.50;;;;;;;;;;10398704;28;20116;-87
2023/09/30 13:18:09;;;;;;;17.15;8.65;;;;;;;;;;10427178;28;20036;-84
2023/09/30 13:23:10;;;;;;;11.48;7.55;;;;;;;;;;10405479;28;20449;-84
2023/09/30 13:28:11;;;;;;;15.18;8.00;;;;;;;;;;10435049;28;20120;-84
2023/09/30 13:33:12;;;;;;;15.25;7.15;;;;;;;;;;10406079;28;20089;-84
2023/09/30 13:38:13;;;;;;;15.00;7.25;;;;;;;;;;10436109;28;20078;-86
2023/09/30 13:43:14;;;;;;;12.15;6.38;;;;;;;;;;10404317;28;20125;-84
2023/09/30 13:48:16;;;;;;;9.68;5.35;;;;;;;;;;10415189;28;20095;-84
2023/09/30 13:53:17;;;;;;;9.50;6.07;;;;;;;;;;10426714;28;20044;-86
2023/09/30 13:58:18;;;;;;;9.30;5.78;;;;;;;;;;10404314;28;20095;-84
2023/09/30 14:03:19;;;;;;;9.63;5.18;;;;;;;;;;10438288;28;20045;-86
2023/09/30 14:08:20;;;;;;;12.00;5.90;;;;;;;;;;10385815;28;20021;-84
2023/09/30 14:13:21;;;;;;;11.45;5.43;;;;;;;;;;10414017;28;20083;-84
2023/09/30 14:18:22;;;;;;;10.45;5.40;;;;;;;;;;10401658;28;20030;-87
2023/09/30 14:23:24;;;;;;;10.63;5.05;;;;;;;;;;10419439;28;20540;-84
2023/09/30 14:28:25;;;;;;;8.60;4.53;;;;;;;;;;10436022;28;20167;-84
2023/09/30 14:33:26;;;;;;;8.68;5.10;;;;;;;;;;10420341;28;20045;-84
2023/09/30 14:38:27;;;;;;;9.52;4.35;;;;;;;;;;10418029;28;20082;-84
2023/09/30 14:43:28;;;;;;;10.43;4.78;;;;;;;;;;10429722;28;20060;-84
2023/09/30 14:48:29;;;;;;;8.73;4.40;;;;;;;;;;10405186;28;20040;-84
2023/09/30 14:53:30;;;;;;;9.05;4.05;;;;;;;;;;10432886;28;20087;-85
2023/09/30 14:58:31;;;;;;;10.65;4.18;;;;;;;;;;10400877;28;20095;-85
2023/09/30 15:03:35;;;;;;;14.63;4.35;;;;;;;;;;10410830;28;20030;-85
2023/09/30 15:08:36;;;;;;;9.60;4.05;;;;;;;;;;10431405;28;20561;-84
2023/09/30 15:13:37;;;;;;;9.82;3.38;;;;;;;;;;10424165;28;20044;-86
2023/09/30 15:18:38;;;;;;;8.07;3.80;;;;;;;;;;10431339;28;20558;-84
2023/09/30 15:23:52;;;;;;;13.73;4.38;;;;;;;;;;10417727;28;20553;-83
2023/09/30 15:28:53;;;;;;;9.48;3.78;;;;;;;;;;10431345;28;20028;-86
2023/09/30 15:34:01;;;;;;;7.80;3.72;;;;;;;;;;10399520;28;20038;-86
2023/09/30 15:39:02;;;;;;;10.38;4.20;;;;;;;;;;10350099;28;20401;-84
2023/09/30 15:44:03;;;;;;;9.35;4.00;;;;;;;;;;10400497;28;20033;-84
2023/09/30 15:49:04;;;;;;;9.05;4.07;;;;;;;;;;10382269;28;20029;-85
2023/09/30 15:54:11;;;;;;;11.32;3.97;;;;;;;;;;10371407;28;20690;-84
2023/09/30 15:59:13;;;;;;;12.70;4.65;;;;;;;;;;10361744;28;20060;-87
2023/09/30 16:04:14;;;;;;;11.10;4.15;;;;;;;;;;10355513;28;20053;-85
2023/09/30 16:09:15;;;;;;;10.90;4.53;;;;;;;;;;10366317;28;20034;-86
2023/09/30 16:14:17;;;;;;;16.52;5.13;;;;;;;;;;10361223;28;20394;-85
2023/09/30 16:19:18;;;;;;;9.02;4.53;;;;;;;;;;10356232;28;20025;-85
2023/09/30 16:24:19;;;;;;;11.25;4.10;;;;;;;;;;10340218;28;20029;-85
2023/09/30 16:29:20;;;;;;;13.05;4.95;;;;;;;;;;10367885;28;20691;-83
2023/09/30 16:34:21;;;;;;;9.90;4.30;;;;;;;;;;10351163;28;20049;-84
2023/09/30 16:39:22;;;;;;;17.85;5.47;;;;;;;;;;10403709;28;20030;-85
2023/09/30 16:44:23;;;;;;;13.20;4.88;;;;;;;;;;10393229;28;20710;-84
2023/09/30 16:49:32;;;;;;;11.40;4.07;;;;;;;;;;10391121;28;20447;-86
2023/09/30 16:54:33;;;;;;;11.73;4.50;;;;;;;;;;10407401;28;20471;-86
2023/09/30 16:59:34;;;;;;;11.43;4.43;;;;;;;;;;10421170;28;20116;-82
2023/09/30 17:04:35;;;;;;;9.70;4.32;;;;;;;;;;10383191;28;20034;-85
2023/09/30 17:09:37;;;;;;;11.10;4.78;;;;;;;;;;10410753;28;20044;-85
2023/09/30 17:14:38;;;;;;;11.75;4.88;;;;;;;;;;10406851;28;20039;-85
2023/09/30 17:19:40;;;;;;;11.23;4.43;;;;;;;;;;10403955;28;20040;-84
2023/09/30 17:24:41;;;;;;;6.60;4.00;;;;;;;;;;10392621;28;20030;-86
2023/09/30 17:29:42;;;;;;;16.85;5.00;;;;;;;;;;10404413;28;20643;-83
2023/09/30 17:34:43;;;;;;;11.05;4.70;;;;;;;;;;10383759;28;20115;-83
2023/09/30 17:39:45;;;;;;;12.52;5.05;;;;;;;;;;10407868;28;20411;-84
2023/09/30 17:44:47;;;;;;;14.25;4.85;;;;;;;;;;10407605;28;20057;-83
2023/09/30 17:49:48;;;;;;;9.60;4.10;;;;;;;;;;10388712;28;20038;-84
2023/09/30 17:54:49;;;;;;;7.00;4.15;;;;;;;;;;10391054;28;20041;-83
2023/09/30 17:59:50;;;;;;;15.35;4.93;;;;;;;;;;10391988;28;20032;-83
2023/09/30 18:04:51;;;;;;;12.05;4.93;;;;;;;;;;10393569;28;20045;-83
2023/09/30 18:09:52;;;;;;;11.73;4.43;;;;;;;;;;10402289;28;20033;-83
2023/09/30 18:14:53;;;;;;;10.20;4.13;;;;;;;;;;10397392;28;20041;-86
2023/09/30 18:19:54;;;;;;;9.05;3.70;;;;;;;;;;10374780;28;20091;-84
2023/09/30 18:24:55;;;;;;;10.60;4.13;;;;;;;;;;10384162;28;20037;-83
2023/09/30 18:29:56;;;;;;;9.82;4.05;;;;;;;;;;10390785;28;20037;-86
2023/09/30 18:34:57;;;;;;;12.18;4.47;;;;;;;;;;10397532;28;20054;-84
2023/09/30 18:39:59;;;;;;;12.55;4.65;;;;;;;;;;10425167;23;20061;-84
2023/09/30 18:44:59;;;;;;;10.68;4.18;;;;;;;;;;10428038;28;20016;-83
2023/09/30 18:50:00;;;;;;;12.73;4.38;;;;;;;;;;10436081;28;20037;-86
2023/09/30 18:55:01;;;;;;;14.90;4.78;;;;;;;;;;10408446;28;20053;-85
2023/09/30 19:00:03;;;;;;;11.20;4.78;;;;;;;;;;10420919;28;20116;-84
2023/09/30 19:05:04;;;;;;;10.70;4.60;;;;;;;;;;10404218;28;20036;-84
2023/09/30 19:10:05;;;;;;;14.63;4.85;;;;;;;;;;10427334;23;20064;-86
2023/09/30 19:15:07;;;;;;;12.55;5.03;;;;;;;;;;10432960;28;20045;-84
2023/09/30 19:20:08;;;;;;;14.43;5.60;;;;;;;;;;10444673;28;20029;-84
2023/09/30 19:25:10;;;;;;;15.20;6.15;;;;;;;;;;10414527;28;20064;-83
2023/09/30 19:30:13;;;;;;;17.95;6.82;;;;;;;;;;10420769;28;20045;-84
2023/09/30 19:35:14;;;;;;;14.48;5.60;;;;;;;;;;10403305;28;20513;-83
2023/09/30 19:40:15;;;;;;;13.93;4.68;;;;;;;;;;10403541;28;20037;-84
2023/09/30 19:45:16;;;;;;;13.45;5.95;;;;;;;;;;10416892;28;20043;-85
2023/09/30 19:50:17;;;;;;;16.48;6.35;;;;;;;;;;10402949;28;20067;-84
2023/09/30 19:55:18;;;;;;;13.15;5.38;;;;;;;;;;10407456;28;20047;-85
2023/09/30 20:00:20;;;;;;;16.50;5.43;;;;;;;;;;10399238;28;20029;-80
2023/09/30 20:05:22;;;;;;;12.95;5.72;;;;;;;;;;10406212;28;20515;-84
2023/09/30 20:10:29;;;;;;;15.48;7.03;;;;;;;;;;10401158;28;20061;-84
2023/09/30 20:15:30;;;;;;;10.98;5.15;;;;;;;;;;10387606;28;20131;-84
2023/09/30 20:20:32;;;;;;;10.20;5.25;;;;;;;;;;10402068;28;20022;-84
2023/09/30 20:25:33;;;;;;;17.00;6.25;;;;;;;;;;10408812;28;20468;-85
2023/09/30 20:30:34;;;;;;;13.48;6.20;;;;;;;;;;10402978;28;20041;-84
2023/09/30 20:35:35;;;;;;;14.07;5.70;;;;;;;;;;10394041;28;20047;-87
2023/09/30 20:40:36;;;;;;;17.27;7.07;;;;;;;;;;10402815;28;20481;-85
2023/09/30 20:45:38;;;;;;;15.77;6.97;;;;;;;;;;10416728;28;20041;-84
2023/09/30 20:50:40;;;;;;;11.93;6.28;;;;;;;;;;10384282;28;20029;-85
2023/09/30 20:55:41;;;;;;;18.73;6.80;;;;;;;;;;10476524;23;20091;-84
2023/09/30 21:00:42;;;;;;;10.10;4.72;;;;;;;;;;10479351;28;20032;-87
2023/09/30 21:05:43;;;;;;;10.45;4.78;;;;;;;;;;10466112;28;20065;-84
2023/09/30 21:10:45;;;;;;;11.13;5.07;;;;;;;;;;10465103;28;20566;-85
2023/09/30 21:15:46;;;;;;;13.75;5.43;;;;;;;;;;10483367;28;20041;-85
2023/09/30 21:20:47;;;;;;;12.27;4.75;;;;;;;;;;10478537;28;20052;-85
2023/09/30 21:25:54;;;;;;;12.90;5.18;;;;;;;;;;10488864;28;20653;-84
2023/09/30 21:30:55;;;;;;;15.55;5.85;;;;;;;;;;10490435;28;20032;-84
2023/09/30 21:36:04;;;;;;;15.68;6.68;;;;;;;;;;10490003;28;20381;-85
2023/09/30 21:41:11;;;;;;;9.68;5.20;;;;;;;;;;10483114;28;20048;-85
2023/09/30 21:46:12;;;;;;;12.73;4.95;;;;;;;;;;10490226;28;20033;-85
2023/09/30 21:51:20;;;;;;;17.90;6.43;;;;;;;;;;10490150;28;20836;-85
2023/09/30 21:56:21;;;;;;;12.25;5.15;;;;;;;;;;10487514;28;20063;-85
2023/09/30 22:01:22;;;;;;;9.05;4.82;;;;;;;;;;10489001;28;20395;-85
2023/09/30 22:06:23;;;;;;;10.25;4.70;;;;;;;;;;10471417;28;20132;-84
2023/09/30 22:11:24;;;;;;;12.43;5.47;;;;;;;;;;10488992;28;20033;-86
2023/09/30 22:16:26;;;;;;;11.73;5.43;;;;;;;;;;10469764;28;20071;-86
2023/09/30 22:21:27;;;;;;;12.45;5.57;;;;;;;;;;10489185;28;20062;-86
2023/09/30 22:26:30;;;;;;;14.48;5.28;;;;;;;;;;10488230;28;20086;-85
2023/09/30 22:31:32;;;;;;;14.98;5.75;;;;;;;;;;10469498;28;20098;-85
2023/09/30 22:36:33;;;;;;;14.88;6.57;;;;;;;;;;10487233;28;20111;-84
2023/09/30 22:41:34;;;;;;;12.13;5.07;;;;;;;;;;10481385;28;20107;-84
2023/09/30 22:46:35;;;;;;;12.57;6.50;;;;;;;;;;10486234;28;20025;-86
2023/09/30 22:51:36;;;;;;;10.57;5.05;;;;;;;;;;10481280;28;20063;-84
2023/09/30 22:56:37;;;;;;;10.90;5.18;;;;;;;;;;10484798;28;20507;-83
2023/09/30 23:01:38;;;;;;;10.25;4.68;;;;;;;;;;10485847;28;20024;-86
2023/09/30 23:06:39;;;;;;;13.95;5.32;;;;;;;;;;10487593;28;20024;-87
2023/09/30 23:11:40;;;;;;;16.08;6.03;;;;;;;;;;10486070;28;20470;-85
2023/09/30 23:16:48;;;;;;;14.65;5.40;;;;;;;;;;10485806;28;20047;-85
2023/09/30 23:21:49;;;;;;;12.75;5.32;;;;;;;;;;10454284;28;20055;-84
2023/09/30 23:26:50;;;;;;;10.65;4.30;;;;;;;;;;10485199;28;20044;-86
2023/09/30 23:31:51;;;;;;;10.75;4.80;;;;;;;;;;10459566;28;20028;-85
2023/09/30 23:36:52;;;;;;;13.00;5.20;;;;;;;;;;10480834;28;20032;-85
2023/09/30 23:41:54;;;;;;;13.48;4.60;;;;;;;;;;10480804;28;20070;-85
2023/09/30 23:47:14;;;;;;;9.13;4.72;;;;;;;;;;10466304;28;20029;-84
2023/09/30 23:52:15;;;;;;;13.88;6.00;;;;;;;;;;10481140;28;20063;-84
2023/09/30 23:57:17;;;;;;;10.93;5.03;;;;;;;;;;10471560;28;20048;-86
